Grant Grove, California
Current Conditions -  °F | °C
As of 8:56 PM on Saturday 20 Dec 2014 (Local Time) from KBIH Reporting Station
Clear Clear  
Wind Chill: 35°   Ceiling: Unl
Heat Index: 35°   Visibility: 10mi
Dew Point: 29°   Wind: 0mph
Humidity: 78%   Direction: NA
Pressure: 30.18"   Gusts: NA
Location:  36.7872°N, 118.66°W
Report Text: KBIH 210456Z AUTO 00000KT 10SM CLR 02/M02 A3018 RMK AO2 SLP224 T00171017
Loading
Personal Weather Stations






























Interactive Weather Map New forecast layout! Learn more

10-Day Weather Forecast

Advertisements
Track Severe Weather on mobile